createdAt,value
2022-09-23T00:01:19.486Z,11.16
2022-09-23T00:03:47.238Z,11.03
2022-09-23T00:06:22.402Z,10.56
2022-09-23T00:08:50.255Z,11.05
2022-09-23T00:11:18.527Z,11.14
2022-09-23T00:13:47.198Z,11.05
2022-09-23T00:16:18.528Z,10.91
2022-09-23T00:18:45.846Z,10.98
2022-09-23T00:21:14.445Z,11.01
2022-09-23T00:23:43.159Z,10.88
2022-09-23T00:26:13.129Z,10.95
2022-09-23T00:28:40.552Z,10.50
2022-09-23T00:31:14.587Z,10.75
2022-09-23T00:33:41.786Z,10.60
2022-09-23T00:36:12.475Z,10.69
2022-09-23T00:38:39.589Z,10.60
2022-09-23T00:41:06.715Z,10.81
2022-09-23T00:43:43.387Z,10.53
2022-09-23T00:46:16.664Z,10.11
2022-09-23T00:48:44.388Z,9.73
2022-09-23T00:51:17.847Z,10.06
2022-09-23T00:53:50.641Z,10.12
2022-09-23T00:56:21.529Z,10.21
2022-09-23T00:58:50.953Z,10.25
2022-09-23T01:01:19.474Z,10.36
2022-09-23T01:03:47.379Z,10.18
2022-09-23T01:06:14.541Z,10.40
2022-09-23T01:08:45.773Z,10.32
2022-09-23T01:11:23.900Z,10.33
2022-09-23T01:14:32.028Z,10.27
2022-09-23T01:17:07.266Z,10.11
2022-09-23T01:19:54.333Z,10.33
2022-09-23T01:22:30.427Z,10.35
2022-09-23T01:25:21.910Z,10.46
2022-09-23T01:28:17.511Z,10.17
2022-09-23T01:30:48.171Z,10.27
2022-09-23T01:33:48.872Z,10.29
2022-09-23T01:36:48.104Z,10.26
2022-09-23T01:39:24.178Z,10.09
2022-09-23T01:42:04.657Z,10.22
2022-09-23T01:44:48.197Z,10.05
2022-09-23T01:47:19.073Z,9.85
2022-09-23T01:49:58.726Z,9.36
2022-09-23T01:52:40.327Z,9.67
2022-09-23T01:55:15.342Z,9.92
2022-09-23T01:57:53.246Z,9.94
2022-09-23T02:00:22.966Z,9.41
2022-09-23T02:03:07.281Z,9.91
2022-09-23T02:05:44.945Z,10.07
2022-09-23T02:08:19.777Z,9.98
2022-09-23T02:10:58.797Z,9.96
2022-09-23T02:13:32.659Z,10.20
2022-09-23T02:16:03.725Z,10.05
2022-09-23T02:18:41.954Z,9.65
2022-09-23T02:21:09.652Z,9.91
2022-09-23T02:23:43.648Z,9.46
2022-09-23T02:26:54.944Z,9.64
2022-09-23T02:29:33.656Z,9.58
2022-09-23T02:32:17.951Z,9.23
2022-09-23T02:35:34.683Z,9.50
2022-09-23T02:38:25.978Z,9.57
2022-09-23T02:40:58.935Z,9.60
2022-09-23T02:43:35.381Z,9.42
2022-09-23T02:46:04.740Z,9.36
2022-09-23T02:48:34.811Z,9.51
2022-09-23T02:51:03.627Z,9.27
2022-09-23T02:53:34.966Z,9.27
2022-09-23T02:56:03.663Z,9.46
2022-09-23T02:58:31.075Z,9.45
2022-09-23T03:01:26.299Z,9.11
2022-09-23T03:04:06.701Z,9.13
2022-09-23T03:06:59.205Z,9.15
2022-09-23T03:09:36.502Z,9.28
2022-09-23T03:12:21.484Z,9.21
2022-09-23T03:14:58.579Z,9.27
2022-09-23T03:17:51.706Z,9.17
2022-09-23T03:20:31.269Z,9.42
2022-09-23T03:23:01.029Z,9.41
2022-09-23T03:25:31.372Z,9.14
2022-09-23T03:28:01.000Z,9.15
2022-09-23T03:30:29.682Z,9.17
2022-09-23T03:33:00.126Z,9.42
2022-09-23T03:35:32.419Z,9.42
2022-09-23T03:38:15.956Z,9.34
2022-09-23T03:40:47.706Z,9.42
2022-09-23T03:43:15.213Z,9.43
2022-09-23T03:45:42.557Z,8.89
2022-09-23T03:48:09.745Z,9.25
2022-09-23T03:50:37.023Z,9.35
2022-09-23T03:53:04.113Z,9.11
2022-09-23T03:55:32.139Z,8.99
2022-09-23T03:58:00.200Z,9.15
2022-09-23T04:00:27.669Z,9.16
2022-09-23T04:02:54.791Z,9.22
2022-09-23T04:05:21.829Z,9.18
2022-09-23T04:07:50.780Z,9.09
2022-09-23T04:10:18.055Z,9.08
2022-09-23T04:12:45.189Z,8.99
2022-09-23T04:15:12.279Z,8.89
2022-09-23T04:17:39.654Z,8.74
2022-09-23T04:20:07.035Z,8.90
2022-09-23T04:22:34.997Z,8.87
2022-09-23T04:25:02.295Z,8.94
2022-09-23T04:27:30.025Z,8.67
2022-09-23T04:29:59.177Z,8.84
2022-09-23T04:32:26.341Z,8.96
2022-09-23T04:34:53.427Z,9.04
2022-09-23T04:37:20.453Z,9.10
2022-09-23T04:39:47.539Z,9.03
2022-09-23T04:42:14.734Z,9.04
2022-09-23T04:44:41.815Z,9.01
2022-09-23T04:47:08.925Z,8.91
2022-09-23T04:49:36.046Z,9.03
2022-09-23T04:52:05.448Z,8.79
2022-09-23T04:54:32.904Z,8.56
2022-09-23T04:56:59.944Z,8.85
2022-09-23T04:59:27.082Z,8.86
2022-09-23T05:01:55.283Z,8.45
2022-09-23T05:04:22.753Z,8.79
2022-09-23T05:06:49.844Z,8.84
2022-09-23T05:09:17.840Z,8.85
2022-09-23T05:11:45.495Z,8.94
2022-09-23T05:14:12.913Z,8.87
2022-09-23T05:16:40.754Z,8.49
2022-09-23T05:19:07.959Z,8.55
2022-09-23T05:21:35.143Z,8.51
2022-09-23T05:24:02.455Z,8.53
2022-09-23T05:26:31.680Z,8.45
2022-09-23T05:28:59.650Z,8.55
2022-09-23T05:31:28.594Z,8.48
2022-09-23T05:34:00.803Z,8.39
2022-09-23T05:36:32.139Z,8.45
2022-09-23T05:39:04.179Z,8.43
2022-09-23T05:41:31.240Z,8.33
2022-09-23T05:43:59.634Z,8.51
2022-09-23T05:46:29.397Z,8.57
2022-09-23T05:49:02.222Z,8.49
2022-09-23T05:51:31.955Z,8.31
2022-09-23T05:54:00.135Z,8.47
2022-09-23T05:56:28.582Z,8.53
2022-09-23T05:58:58.026Z,8.63
2022-09-23T06:01:28.377Z,8.65
2022-09-23T06:03:57.121Z,8.76
2022-09-23T06:06:31.596Z,8.89
2022-09-23T06:09:00.092Z,8.74
2022-09-23T06:11:30.424Z,8.74
2022-09-23T06:14:02.415Z,8.97
2022-09-23T06:16:32.363Z,9.04
2022-09-23T06:19:06.565Z,9.04
2022-09-23T06:21:38.981Z,9.17
2022-09-23T06:24:07.427Z,9.23
2022-09-23T06:26:37.454Z,9.25
2022-09-23T06:29:11.767Z,9.53
2022-09-23T06:31:42.071Z,9.40
2022-09-23T06:34:14.144Z,9.37
2022-09-23T06:36:45.407Z,8.97
2022-09-23T06:39:14.235Z,8.65
2022-09-23T06:41:41.341Z,8.80
2022-09-23T06:44:13.588Z,8.79
2022-09-23T06:46:40.735Z,8.83
2022-09-23T06:49:08.510Z,9.21
2022-09-23T06:51:35.643Z,9.16
2022-09-23T06:54:03.397Z,9.34
2022-09-23T06:56:34.704Z,9.54
2022-09-23T06:59:05.342Z,9.57
2022-09-23T07:01:33.388Z,9.59
2022-09-23T07:04:01.594Z,9.57
2022-09-23T07:06:28.883Z,9.87
2022-09-23T07:08:55.948Z,9.98
2022-09-23T07:11:23.007Z,10.12
2022-09-23T07:13:50.127Z,10.15
2022-09-23T07:16:17.370Z,10.21
2022-09-23T07:18:45.661Z,10.39
2022-09-23T07:21:15.690Z,10.40
2022-09-23T07:23:47.237Z,10.55
2022-09-23T07:26:15.741Z,10.63
2022-09-23T07:28:43.158Z,10.77
2022-09-23T07:31:13.102Z,10.85
2022-09-23T07:33:44.201Z,10.99
2022-09-23T07:36:17.317Z,11.00
2022-09-23T07:38:46.057Z,11.14
2022-09-23T07:41:18.648Z,10.90
2022-09-23T07:43:46.917Z,11.10
2022-09-23T07:46:17.478Z,11.09
2022-09-23T07:48:46.278Z,11.30
2022-09-23T07:51:18.514Z,11.39
2022-09-23T07:53:51.098Z,11.46
2022-09-23T07:56:19.805Z,11.67
2022-09-23T07:59:00.063Z,11.60
2022-09-23T08:01:29.468Z,11.79
2022-09-23T08:03:58.375Z,11.95
2022-09-23T08:06:25.877Z,12.10
2022-09-23T08:08:53.598Z,12.12
2022-09-23T08:11:20.824Z,12.31
2022-09-23T08:13:48.025Z,12.48
2022-09-23T08:16:15.236Z,12.45
2022-09-23T08:18:45.713Z,12.57
2022-09-23T08:21:12.818Z,12.76
2022-09-23T08:23:39.941Z,12.82
2022-09-23T08:26:13.901Z,13.04
2022-09-23T08:28:47.866Z,12.85
2022-09-23T08:31:15.221Z,13.06
2022-09-23T08:33:43.097Z,13.21
2022-09-23T08:36:10.217Z,13.29
2022-09-23T08:38:37.391Z,13.43
2022-09-23T08:41:27.624Z,13.46
2022-09-23T08:43:59.047Z,13.46
2022-09-23T08:46:32.110Z,13.62
2022-09-23T08:49:00.933Z,13.83
2022-09-23T08:51:41.131Z,13.95
2022-09-23T08:54:12.868Z,14.00
2022-09-23T08:56:43.487Z,14.11
2022-09-23T08:59:41.673Z,14.30
2022-09-23T09:02:18.956Z,14.03
2022-09-23T09:04:52.564Z,14.18
2022-09-23T09:07:36.305Z,14.47
2022-09-23T09:10:26.709Z,14.33
2022-09-23T09:13:06.733Z,14.18
2022-09-23T09:15:56.249Z,14.54
2022-09-23T09:18:25.621Z,14.68
2022-09-23T09:21:11.577Z,14.83
2022-09-23T09:23:48.231Z,14.71
2022-09-23T09:26:23.983Z,15.05
2022-09-23T09:29:31.176Z,15.24
2022-09-23T09:31:59.586Z,15.37
2022-09-23T09:34:35.102Z,15.19
2022-09-23T09:37:12.520Z,15.33
2022-09-23T09:39:39.594Z,15.16
2022-09-23T09:42:07.443Z,15.34
2022-09-23T09:44:48.023Z,15.48
2022-09-23T09:47:32.842Z,15.28
2022-09-23T09:50:21.561Z,15.51
2022-09-23T09:52:48.660Z,15.47
2022-09-23T09:55:25.541Z,15.18
2022-09-23T09:58:05.147Z,15.28
2022-09-23T10:00:42.972Z,15.31
2022-09-23T10:03:13.249Z,15.41
2022-09-23T10:05:46.561Z,15.46
2022-09-23T10:08:27.222Z,15.49
2022-09-23T10:11:05.055Z,15.19
2022-09-23T10:13:32.171Z,15.19
2022-09-23T10:16:02.972Z,15.31
2022-09-23T10:18:49.998Z,15.32
2022-09-23T10:21:26.936Z,15.18
2022-09-23T10:24:01.617Z,15.30
2022-09-23T10:26:38.798Z,15.37
2022-09-23T10:29:30.766Z,15.31
2022-09-23T10:32:34.233Z,15.69
2022-09-23T10:35:08.890Z,15.94
2022-09-23T10:37:37.902Z,16.01
2022-09-23T10:40:32.684Z,15.93
2022-09-23T10:43:37.226Z,15.94
2022-09-23T10:46:28.210Z,15.93
2022-09-23T10:49:31.289Z,16.12
2022-09-23T10:52:10.294Z,16.34
2022-09-23T10:55:05.559Z,16.02
2022-09-23T10:57:40.478Z,15.85
2022-09-23T11:00:29.080Z,15.89
2022-09-23T11:03:31.070Z,15.79
2022-09-23T11:06:21.920Z,16.02
2022-09-23T11:08:57.302Z,16.06
2022-09-23T11:11:39.490Z,16.16
2022-09-23T11:14:41.102Z,16.21
2022-09-23T11:17:23.438Z,16.33
2022-09-23T11:20:27.979Z,15.99
2022-09-23T11:23:24.416Z,15.80
2022-09-23T11:26:33.338Z,15.71
2022-09-23T11:29:06.314Z,15.60
2022-09-23T11:31:59.715Z,15.68
2022-09-23T11:34:52.538Z,15.95
2022-09-23T11:37:29.574Z,16.24
2022-09-23T11:40:04.838Z,16.14
2022-09-23T11:42:52.357Z,16.70
2022-09-23T11:45:29.286Z,16.47
2022-09-23T11:48:26.848Z,16.45
2022-09-23T11:51:01.595Z,16.05
2022-09-23T11:53:43.024Z,16.24
2022-09-23T11:56:34.156Z,16.39
2022-09-23T11:59:21.498Z,16.48
2022-09-23T12:02:12.571Z,16.65
2022-09-23T12:04:57.885Z,16.55
2022-09-23T12:07:44.636Z,16.43
2022-09-23T12:10:12.198Z,16.71
2022-09-23T12:12:55.914Z,16.41
2022-09-23T12:15:26.254Z,16.30
2022-09-23T12:18:05.415Z,16.31
2022-09-23T12:20:51.441Z,16.62
2022-09-23T12:23:52.262Z,16.58
2022-09-23T12:26:23.550Z,16.83
2022-09-23T12:28:54.812Z,16.97
2022-09-23T12:31:30.555Z,16.67
2022-09-23T12:34:20.510Z,17.00
2022-09-23T12:36:47.798Z,17.66
2022-09-23T12:39:17.328Z,17.55
2022-09-23T12:41:48.635Z,18.06
2022-09-23T12:44:31.540Z,18.05
2022-09-23T12:47:25.767Z,17.91
2022-09-23T12:49:53.924Z,18.36
2022-09-23T12:52:26.945Z,18.85
2022-09-23T12:55:02.968Z,18.92
2022-09-23T12:57:35.909Z,18.42
2022-09-23T13:00:15.358Z,18.27
2022-09-23T13:03:08.205Z,18.40
2022-09-23T13:06:16.459Z,18.29
2022-09-23T13:08:45.011Z,17.93
2022-09-23T13:11:32.337Z,18.10
2022-09-23T13:14:03.445Z,18.44
2022-09-23T13:16:33.944Z,17.82
2022-09-23T13:19:05.904Z,17.79
2022-09-23T13:21:45.637Z,17.95
2022-09-23T13:24:12.668Z,17.46
2022-09-23T13:27:10.518Z,18.42
2022-09-23T13:30:01.955Z,18.70
2022-09-23T13:32:32.907Z,19.33
2022-09-23T13:35:04.163Z,18.81
2022-09-23T13:37:37.313Z,18.97
2022-09-23T13:40:09.934Z,18.79
2022-09-23T13:42:39.843Z,18.15
2022-09-23T13:45:15.895Z,18.22
2022-09-23T13:47:44.966Z,17.78
2022-09-23T13:50:22.268Z,17.73
2022-09-23T13:52:57.841Z,17.36
2022-09-23T13:55:38.888Z,17.49
2022-09-23T13:58:21.376Z,17.03
2022-09-23T14:00:50.392Z,16.78
2022-09-23T14:03:45.267Z,17.01
2022-09-23T14:06:17.579Z,16.92
2022-09-23T14:08:48.019Z,17.15
2022-09-23T14:11:21.799Z,16.96
2022-09-23T14:13:54.913Z,16.68
2022-09-23T14:16:26.713Z,16.95
2022-09-23T14:18:59.319Z,16.71
2022-09-23T14:21:34.654Z,16.68
2022-09-23T14:24:35.246Z,16.82
2022-09-23T14:27:15.825Z,16.82
2022-09-23T14:29:45.382Z,17.09
2022-09-23T14:32:20.961Z,16.83
2022-09-23T14:34:52.329Z,16.79
2022-09-23T14:37:52.303Z,17.08
2022-09-23T14:40:38.729Z,17.08
2022-09-23T14:43:16.252Z,16.92
2022-09-23T14:45:50.537Z,17.08
2022-09-23T14:48:23.184Z,17.45
2022-09-23T14:50:58.632Z,16.91
2022-09-23T14:53:31.334Z,16.52
2022-09-23T14:56:11.808Z,17.11
2022-09-23T14:58:51.984Z,16.96
2022-09-23T15:01:25.968Z,17.18
2022-09-23T15:03:55.470Z,16.84
2022-09-23T15:06:23.707Z,17.09
2022-09-23T15:08:52.471Z,17.09
2022-09-23T15:11:21.628Z,16.63
2022-09-23T15:13:53.000Z,16.88
2022-09-23T15:16:27.896Z,16.64
2022-09-23T15:18:58.620Z,17.02
2022-09-23T15:21:41.038Z,17.05
2022-09-23T15:24:37.705Z,17.00
2022-09-23T15:27:11.917Z,17.70
2022-09-23T15:29:39.314Z,17.22
2022-09-23T15:32:07.884Z,17.43
2022-09-23T15:34:35.154Z,16.96
2022-09-23T15:37:02.483Z,16.96
2022-09-23T15:39:35.990Z,16.71
2022-09-23T15:42:03.676Z,16.70
2022-09-23T15:44:30.774Z,16.26
2022-09-23T15:47:01.264Z,16.30
2022-09-23T15:49:36.324Z,16.33
2022-09-23T15:52:05.484Z,16.60
2022-09-23T15:54:33.709Z,16.56
2022-09-23T15:57:01.435Z,16.09
2022-09-23T15:59:31.081Z,16.09
2022-09-23T16:02:05.665Z,16.22
2022-09-23T16:04:32.989Z,16.19
2022-09-23T16:07:01.117Z,16.27
2022-09-23T16:09:31.475Z,16.19
2022-09-23T16:11:58.608Z,16.19
2022-09-23T16:14:25.709Z,16.36
2022-09-23T16:16:52.844Z,16.41
2022-09-23T16:19:19.981Z,16.28
2022-09-23T16:21:47.157Z,16.23
2022-09-23T16:24:18.619Z,16.04
2022-09-23T16:26:48.055Z,16.13
2022-09-23T16:29:15.446Z,16.39
2022-09-23T16:31:42.742Z,16.46
2022-09-23T16:34:10.025Z,16.28
2022-09-23T16:36:43.025Z,16.28
2022-09-23T16:39:12.549Z,16.32
2022-09-23T16:41:39.889Z,16.21
2022-09-23T16:44:09.262Z,16.11
2022-09-23T16:46:36.352Z,16.05
2022-09-23T16:49:03.859Z,16.01
2022-09-23T16:51:38.443Z,15.87
2022-09-23T16:54:10.091Z,15.77
2022-09-23T16:56:44.100Z,15.58
2022-09-23T16:59:12.887Z,15.22
2022-09-23T17:01:58.641Z,15.09
2022-09-23T17:04:27.256Z,14.93
2022-09-23T17:06:55.905Z,15.29
2022-09-23T17:09:26.451Z,15.39
2022-09-23T17:12:16.534Z,15.17
2022-09-23T17:14:43.701Z,15.27
2022-09-23T17:17:10.755Z,15.23
2022-09-23T17:19:41.183Z,15.18
2022-09-23T17:22:08.396Z,15.22
2022-09-23T17:24:36.692Z,15.07
2022-09-23T17:27:03.842Z,15.14
2022-09-23T17:29:30.889Z,14.92
2022-09-23T17:31:58.174Z,14.85
2022-09-23T17:34:25.260Z,14.74
2022-09-23T17:36:52.337Z,14.88
2022-09-23T17:39:19.395Z,14.66
2022-09-23T17:41:46.509Z,14.76
2022-09-23T17:44:15.429Z,14.79
2022-09-23T17:46:43.495Z,14.64
2022-09-23T17:49:11.308Z,14.09
2022-09-23T17:51:38.431Z,13.84
2022-09-23T17:54:06.219Z,13.89
2022-09-23T17:56:33.859Z,14.34
2022-09-23T17:59:02.083Z,14.37
2022-09-23T18:01:29.895Z,14.12
2022-09-23T18:04:00.929Z,14.46
2022-09-23T18:06:35.348Z,14.56
2022-09-23T18:09:05.558Z,14.40
2022-09-23T18:11:35.635Z,14.12
2022-09-23T18:14:06.559Z,14.21
2022-09-23T18:16:39.868Z,14.18
2022-09-23T18:19:10.290Z,14.14
2022-09-23T18:21:40.692Z,14.20
2022-09-23T18:26:59.497Z,13.67
2022-09-23T18:29:26.785Z,13.48
2022-09-23T18:31:54.072Z,13.66
2022-09-23T18:34:21.507Z,13.95
2022-09-23T18:36:48.595Z,13.74
2022-09-23T18:39:15.672Z,13.65
2022-09-23T18:41:43.049Z,13.78
2022-09-23T18:44:10.207Z,13.79
2022-09-23T18:46:37.404Z,13.71
2022-09-23T18:49:23.181Z,13.75
2022-09-23T18:51:56.090Z,13.63
2022-09-23T18:54:25.456Z,13.36
2022-09-23T18:56:52.706Z,13.37
2022-09-23T18:59:23.716Z,13.45
2022-09-23T19:01:51.052Z,13.57
2022-09-23T19:04:20.403Z,13.50
2022-09-23T19:06:48.095Z,13.45
2022-09-23T19:09:16.186Z,13.71
2022-09-23T19:11:44.274Z,13.75
2022-09-23T19:14:12.068Z,13.72
2022-09-23T19:16:40.667Z,13.86
2022-09-23T19:19:08.666Z,13.23
2022-09-23T19:21:36.352Z,13.08
2022-09-23T19:24:06.197Z,12.96
2022-09-23T19:26:40.696Z,12.92
2022-09-23T19:29:12.651Z,12.92
2022-09-23T19:31:40.786Z,12.49
2022-09-23T19:34:15.551Z,12.44
2022-09-23T19:36:44.574Z,12.72
2022-09-23T19:39:16.266Z,12.83
2022-09-23T19:41:43.408Z,12.70
2022-09-23T19:44:10.675Z,12.49
2022-09-23T19:46:40.682Z,12.48
2022-09-23T19:49:08.087Z,12.34
2022-09-23T19:51:35.440Z,12.65
2022-09-23T19:54:04.184Z,12.32
2022-09-23T19:56:32.446Z,12.52
2022-09-23T19:59:00.644Z,12.77
2022-09-23T20:01:29.403Z,13.05
2022-09-23T20:03:56.729Z,12.97
2022-09-23T20:06:23.840Z,13.05
2022-09-23T20:08:50.989Z,12.92
2022-09-23T20:11:28.100Z,12.92
2022-09-23T20:14:01.792Z,12.70
2022-09-23T20:16:32.315Z,12.59
2022-09-23T20:19:00.609Z,12.66
2022-09-23T20:21:29.203Z,13.07
2022-09-23T20:23:57.610Z,13.16
2022-09-23T20:26:43.768Z,13.05
2022-09-23T20:29:13.621Z,13.12
2022-09-23T20:31:41.038Z,12.44
2022-09-23T20:34:10.253Z,12.46
2022-09-23T20:36:39.459Z,12.84
2022-09-23T20:39:07.055Z,12.88
2022-09-23T20:41:38.030Z,12.97
2022-09-23T20:44:12.342Z,13.02
2022-09-23T20:46:47.445Z,12.79
2022-09-23T20:49:18.577Z,12.91
2022-09-23T20:51:48.068Z,12.86
2022-09-23T20:54:16.361Z,12.54
2022-09-23T20:56:43.586Z,12.83
2022-09-23T20:59:14.707Z,12.92
2022-09-23T21:01:41.940Z,12.75
2022-09-23T21:04:09.733Z,12.44
2022-09-23T21:06:37.833Z,11.97
2022-09-23T21:09:06.306Z,12.25
2022-09-23T21:11:33.857Z,12.32
2022-09-23T21:14:01.447Z,12.35
2022-09-23T21:16:29.603Z,12.60
2022-09-23T21:18:57.760Z,12.26
2022-09-23T21:21:24.993Z,12.36
2022-09-23T21:23:52.217Z,12.29
2022-09-23T21:26:21.933Z,12.34
2022-09-23T21:28:51.356Z,12.33
2022-09-23T21:31:25.156Z,12.33
2022-09-23T21:33:54.162Z,12.32
2022-09-23T21:36:23.883Z,12.26
2022-09-23T21:38:51.748Z,12.17
2022-09-23T21:41:19.748Z,11.61
2022-09-23T21:43:47.388Z,11.69
2022-09-23T21:46:19.957Z,12.00
2022-09-23T21:48:50.653Z,12.10
2022-09-23T21:51:25.372Z,11.59
2022-09-23T21:53:54.984Z,11.73
2022-09-23T21:56:24.749Z,11.83
2022-09-23T21:58:54.059Z,11.62
2022-09-23T22:01:23.239Z,11.76
2022-09-23T22:03:56.217Z,11.62
2022-09-23T22:06:26.833Z,11.78
2022-09-23T22:08:58.915Z,11.75
2022-09-23T22:11:50.658Z,11.64
2022-09-23T22:14:20.081Z,11.62
2022-09-23T22:16:47.229Z,11.65
2022-09-23T22:19:15.028Z,11.75
2022-09-23T22:21:43.916Z,11.63
2022-09-23T22:24:12.433Z,11.69
2022-09-23T22:26:44.323Z,11.14
2022-09-23T22:29:33.897Z,11.51
2022-09-23T22:32:20.872Z,11.64
2022-09-23T22:34:50.633Z,11.69
2022-09-23T22:37:25.636Z,11.70
2022-09-23T22:39:53.442Z,11.45
2022-09-23T22:42:24.062Z,11.46
2022-09-23T22:44:51.679Z,11.67
2022-09-23T22:47:19.856Z,11.41
2022-09-23T22:49:47.964Z,11.05
2022-09-23T22:52:20.779Z,11.05
2022-09-23T22:54:48.158Z,11.12
2022-09-23T22:57:15.274Z,11.17
2022-09-23T22:59:47.725Z,11.41
2022-09-23T23:02:16.963Z,11.37
2022-09-23T23:04:46.386Z,11.24
2022-09-23T23:07:14.965Z,11.13
2022-09-23T23:09:41.975Z,11.31
2022-09-23T23:12:09.123Z,11.33
2022-09-23T23:14:36.301Z,11.29
2022-09-23T23:17:07.182Z,11.18
2022-09-23T23:19:36.204Z,11.26
2022-09-23T23:22:04.629Z,11.13
2022-09-23T23:24:32.331Z,11.20
2022-09-23T23:26:59.371Z,11.02
2022-09-23T23:29:27.751Z,10.88
2022-09-23T23:31:54.923Z,10.89
2022-09-23T23:34:22.880Z,11.07
2022-09-23T23:36:54.335Z,11.12
2022-09-23T23:39:26.114Z,10.92
2022-09-23T23:41:54.974Z,10.83
2022-09-23T23:44:24.489Z,10.89
2022-09-23T23:46:52.549Z,10.57
2022-09-23T23:49:20.186Z,10.69
2022-09-23T23:51:47.820Z,10.69
2022-09-23T23:54:15.333Z,10.79
2022-09-23T23:56:42.786Z,10.98
2022-09-23T23:59:10.047Z,10.75
